Time;durP1;ratioP1;P1;durP2;ratioP2;P2;SDS_P1;SDS_P2;PMS_P1;PMS_P2;Temp;Humidity;BMP_temperature;BMP_pressure;BME280_temperature;BME280_humidity;BME280_pressure;Samples;Min_cycle;Max_cycle;Signal;HPM_P1;HPM_P2
2022/04/27 00:00:33;;;;;;;16.27;6.63;;;;;;;;;;5027117;28;20041;-64
2022/04/27 00:03:00;;;;;;;12.02;6.70;;;;;;;;;;5027706;28;20029;-65
2022/04/27 00:05:26;;;;;;;10.45;6.28;;;;;;;;;;5035781;28;20048;-65
2022/04/27 00:07:52;;;;;;;11.40;6.20;;;;;;;;;;5027606;28;20046;-65
2022/04/27 00:10:19;;;;;;;11.95;6.22;;;;;;;;;;5027411;28;20037;-65
2022/04/27 00:12:45;;;;;;;12.85;6.15;;;;;;;;;;5053533;28;20088;-64
2022/04/27 00:15:12;;;;;;;14.48;7.05;;;;;;;;;;5011077;28;20041;-65
2022/04/27 00:17:38;;;;;;;9.65;6.35;;;;;;;;;;5011050;28;20044;-64
2022/04/27 00:20:05;;;;;;;13.05;6.60;;;;;;;;;;5027434;28;20076;-66
2022/04/27 00:22:31;;;;;;;14.38;8.02;;;;;;;;;;5043535;28;20041;-64
2022/04/27 00:25:01;;;;;;;9.75;6.30;;;;;;;;;;5027333;28;20049;-64
2022/04/27 00:27:27;;;;;;;12.57;7.80;;;;;;;;;;5042236;28;20046;-64
2022/04/27 00:29:55;;;;;;;11.98;8.00;;;;;;;;;;5048778;28;20462;-65
2022/04/27 00:32:21;;;;;;;15.27;7.78;;;;;;;;;;5048814;28;20045;-64
2022/04/27 00:34:47;;;;;;;14.45;8.50;;;;;;;;;;5051909;28;20044;-65
2022/04/27 00:37:13;;;;;;;13.68;8.43;;;;;;;;;;5026343;28;20896;-64
2022/04/27 00:39:40;;;;;;;12.82;7.55;;;;;;;;;;5042681;28;20060;-65
2022/04/27 00:42:32;;;;;;;11.95;7.72;;;;;;;;;;5026954;28;20041;-66
2022/04/27 00:44:58;;;;;;;12.63;9.10;;;;;;;;;;5025389;28;20088;-64
2022/04/27 00:47:26;;;;;;;16.23;8.90;;;;;;;;;;5026232;28;20092;-65
2022/04/27 00:49:53;;;;;;;13.60;8.27;;;;;;;;;;5028394;28;20033;-65
2022/04/27 00:52:19;;;;;;;13.23;8.80;;;;;;;;;;5027341;28;20052;-63
2022/04/27 00:54:49;;;;;;;15.18;10.05;;;;;;;;;;5029987;28;20041;-62
2022/04/27 00:57:16;;;;;;;13.07;8.25;;;;;;;;;;5027976;28;20033;-62
2022/04/27 00:59:42;;;;;;;12.27;8.93;;;;;;;;;;5018948;28;20041;-63
2022/04/27 01:02:08;;;;;;;14.45;8.32;;;;;;;;;;5011415;28;20045;-63
2022/04/27 01:04:35;;;;;;;12.27;8.15;;;;;;;;;;5028068;28;20496;-62
2022/04/27 01:07:01;;;;;;;11.88;8.52;;;;;;;;;;4994376;28;20052;-63
2022/04/27 01:09:29;;;;;;;15.93;8.40;;;;;;;;;;5028865;28;20128;-62
2022/04/27 01:11:55;;;;;;;13.32;8.02;;;;;;;;;;5036366;28;20442;-62
2022/04/27 01:14:22;;;;;;;11.73;7.75;;;;;;;;;;5029296;28;20080;-62
2022/04/27 01:16:52;;;;;;;10.27;7.90;;;;;;;;;;5028942;28;20038;-63
2022/04/27 01:19:19;;;;;;;10.15;7.22;;;;;;;;;;5034815;28;20101;-62
2022/04/27 01:21:45;;;;;;;14.85;8.75;;;;;;;;;;5033629;28;20048;-63
2022/04/27 01:24:11;;;;;;;10.10;8.00;;;;;;;;;;5033274;28;20128;-64
2022/04/27 01:26:37;;;;;;;11.77;8.05;;;;;;;;;;5049492;28;20045;-64
2022/04/27 01:29:04;;;;;;;12.77;8.00;;;;;;;;;;5026368;28;20043;-64
2022/04/27 01:31:31;;;;;;;12.35;8.40;;;;;;;;;;5017050;28;20046;-64
2022/04/27 01:33:57;;;;;;;13.25;8.35;;;;;;;;;;5026100;28;20538;-64
2022/04/27 01:36:23;;;;;;;11.38;7.70;;;;;;;;;;5025440;28;20037;-63
2022/04/27 01:38:49;;;;;;;15.15;8.55;;;;;;;;;;5027122;28;20444;-64
2022/04/27 01:41:16;;;;;;;13.65;8.27;;;;;;;;;;5048197;28;20514;-63
2022/04/27 01:43:42;;;;;;;13.02;7.68;;;;;;;;;;5046908;28;20057;-64
2022/04/27 01:46:09;;;;;;;12.65;7.75;;;;;;;;;;5025978;28;20558;-64
2022/04/27 01:48:36;;;;;;;13.23;8.27;;;;;;;;;;5025921;28;20038;-65
2022/04/27 01:51:02;;;;;;;15.27;8.23;;;;;;;;;;5051556;28;20177;-65
2022/04/27 01:56:14;;;;;;;17.95;7.97;;;;;;;;;;5024154;28;20041;-65
2022/04/27 01:58:41;;;;;;;12.68;7.38;;;;;;;;;;5018229;28;20037;-62
2022/04/27 02:01:11;;;;;;;13.80;8.07;;;;;;;;;;5051292;28;20050;-63
2022/04/27 02:03:37;;;;;;;14.38;8.18;;;;;;;;;;5026714;28;20045;-63
2022/04/27 02:06:03;;;;;;;12.45;8.05;;;;;;;;;;5010686;28;20034;-62
2022/04/27 02:08:29;;;;;;;14.07;8.27;;;;;;;;;;5027416;28;20060;-63
2022/04/27 02:10:55;;;;;;;13.68;8.00;;;;;;;;;;5049038;28;20056;-64
2022/04/27 02:13:21;;;;;;;18.23;8.35;;;;;;;;;;5033019;28;20537;-63
2022/04/27 02:15:47;;;;;;;13.05;8.10;;;;;;;;;;5010764;28;20041;-63
2022/04/27 02:18:13;;;;;;;16.27;8.50;;;;;;;;;;5028646;28;20042;-64
2022/04/27 02:20:39;;;;;;;13.65;8.50;;;;;;;;;;4991758;28;20058;-64
2022/04/27 02:23:05;;;;;;;13.05;8.40;;;;;;;;;;5026597;28;20045;-63
2022/04/27 02:25:32;;;;;;;11.93;7.68;;;;;;;;;;5023030;28;20034;-64
2022/04/27 02:27:58;;;;;;;12.85;7.70;;;;;;;;;;5025442;28;20080;-63
2022/04/27 02:30:24;;;;;;;12.65;8.02;;;;;;;;;;5018235;28;20060;-66
2022/04/27 02:32:51;;;;;;;13.07;7.82;;;;;;;;;;5008777;28;20053;-64
2022/04/27 02:35:18;;;;;;;12.65;8.23;;;;;;;;;;5048508;28;20041;-65
2022/04/27 02:37:45;;;;;;;19.15;8.65;;;;;;;;;;5033892;28;20049;-64
2022/04/27 02:40:11;;;;;;;14.60;8.73;;;;;;;;;;5029223;28;20041;-64
2022/04/27 02:42:37;;;;;;;11.15;8.63;;;;;;;;;;5012778;28;20037;-65
2022/04/27 02:45:04;;;;;;;12.98;8.40;;;;;;;;;;5041499;28;20049;-64
2022/04/27 02:47:31;;;;;;;17.42;8.20;;;;;;;;;;5013202;28;20041;-63
2022/04/27 02:52:43;;;;;;;14.00;8.07;;;;;;;;;;5030217;28;20056;-63
2022/04/27 02:55:09;;;;;;;12.07;7.60;;;;;;;;;;5031562;28;20041;-62
2022/04/27 02:57:35;;;;;;;9.90;7.70;;;;;;;;;;5031117;28;20033;-62
2022/04/27 03:00:01;;;;;;;10.43;8.48;;;;;;;;;;5030028;28;20485;-64
2022/04/27 03:02:27;;;;;;;14.27;8.73;;;;;;;;;;5038237;28;20052;-62
2022/04/27 03:04:53;;;;;;;12.90;9.27;;;;;;;;;;5031346;28;20038;-63
2022/04/27 03:07:20;;;;;;;13.57;8.50;;;;;;;;;;5030442;28;20033;-63
2022/04/27 03:09:49;;;;;;;13.15;8.55;;;;;;;;;;5031423;28;20041;-64
2022/04/27 03:12:15;;;;;;;14.23;8.27;;;;;;;;;;5028160;28;20052;-65
2022/04/27 03:14:41;;;;;;;12.30;8.10;;;;;;;;;;5052460;28;20075;-64
2022/04/27 03:17:07;;;;;;;10.82;7.95;;;;;;;;;;5011935;28;20482;-64
2022/04/27 03:19:33;;;;;;;15.07;7.78;;;;;;;;;;5028085;28;21257;-64
2022/04/27 03:21:59;;;;;;;11.35;7.32;;;;;;;;;;5028164;28;20148;-64
2022/04/27 03:24:25;;;;;;;17.55;9.15;;;;;;;;;;5011443;28;20073;-64
2022/04/27 03:26:51;;;;;;;14.18;7.93;;;;;;;;;;5034698;28;20049;-64
2022/04/27 03:29:17;;;;;;;13.43;7.88;;;;;;;;;;5036599;28;20045;-63
2022/04/27 03:31:43;;;;;;;11.48;7.30;;;;;;;;;;5053792;28;20048;-63
2022/04/27 03:34:09;;;;;;;11.50;7.18;;;;;;;;;;5052735;28;20034;-64
2022/04/27 03:36:36;;;;;;;13.45;7.50;;;;;;;;;;5029097;28;20651;-63
2022/04/27 03:39:02;;;;;;;12.02;6.85;;;;;;;;;;5036390;28;20075;-64
2022/04/27 03:41:28;;;;;;;11.60;7.35;;;;;;;;;;5027394;28;20041;-64
2022/04/27 03:43:54;;;;;;;10.85;7.32;;;;;;;;;;5027943;28;20479;-65
2022/04/27 03:46:20;;;;;;;9.85;7.03;;;;;;;;;;5027278;28;20060;-65
2022/04/27 03:48:47;;;;;;;11.30;7.20;;;;;;;;;;5029510;28;20037;-66
2022/04/27 03:51:15;;;;;;;12.10;6.80;;;;;;;;;;5026786;28;20057;-64
2022/04/27 03:53:41;;;;;;;10.30;7.00;;;;;;;;;;5027174;28;20037;-63
2022/04/27 03:56:07;;;;;;;11.98;6.28;;;;;;;;;;5028884;28;20429;-64
2022/04/27 03:58:33;;;;;;;13.73;7.13;;;;;;;;;;5027267;28;20107;-63
2022/04/27 04:00:59;;;;;;;12.10;6.20;;;;;;;;;;4994909;28;20399;-64
2022/04/27 04:03:25;;;;;;;13.57;6.60;;;;;;;;;;5027241;28;20037;-64
2022/04/27 04:05:52;;;;;;;7.82;5.20;;;;;;;;;;5026194;28;20088;-64
2022/04/27 04:08:19;;;;;;;10.25;5.78;;;;;;;;;;5010513;28;20155;-64
2022/04/27 04:10:46;;;;;;;8.32;5.90;;;;;;;;;;5028462;28;20386;-63
2022/04/27 04:13:12;;;;;;;7.28;5.25;;;;;;;;;;5028237;28;20415;-62
2022/04/27 04:15:38;;;;;;;9.00;5.70;;;;;;;;;;5010414;28;20069;-64
2022/04/27 04:18:05;;;;;;;6.93;5.30;;;;;;;;;;5028411;28;20069;-64
2022/04/27 04:20:31;;;;;;;6.88;5.25;;;;;;;;;;5050890;28;20048;-63
2022/04/27 04:22:57;;;;;;;7.53;5.35;;;;;;;;;;5028115;28;20490;-64
2022/04/27 04:30:54;;;;;;;10.10;5.70;;;;;;;;;;5028184;28;20511;-63
2022/04/27 04:33:20;;;;;;;9.68;5.40;;;;;;;;;;5011838;28;20045;-62
2022/04/27 04:35:47;;;;;;;8.80;4.82;;;;;;;;;;5052238;28;20073;-63
2022/04/27 04:38:13;;;;;;;7.28;4.25;;;;;;;;;;5029697;28;20041;-62
2022/04/27 04:40:39;;;;;;;9.45;4.20;;;;;;;;;;5029282;28;20438;-63
2022/04/27 04:43:05;;;;;;;6.90;4.07;;;;;;;;;;5035212;28;20050;-62
2022/04/27 04:45:31;;;;;;;6.78;3.95;;;;;;;;;;5028162;28;20191;-63
2022/04/27 04:47:58;;;;;;;7.10;4.50;;;;;;;;;;5029391;28;20136;-63
2022/04/27 04:50:24;;;;;;;8.77;5.00;;;;;;;;;;5029591;28;20053;-63
2022/04/27 04:52:50;;;;;;;7.20;4.50;;;;;;;;;;5027927;28;20041;-64
2022/04/27 04:55:16;;;;;;;7.93;4.95;;;;;;;;;;5028373;28;20495;-63
2022/04/27 04:57:42;;;;;;;7.13;4.55;;;;;;;;;;5026004;28;20098;-64
2022/04/27 05:00:09;;;;;;;6.22;4.50;;;;;;;;;;5025854;28;20045;-64
2022/04/27 05:02:36;;;;;;;7.28;4.82;;;;;;;;;;5027294;28;20049;-64
2022/04/27 05:05:03;;;;;;;7.18;5.18;;;;;;;;;;5028043;28;20049;-64
2022/04/27 05:07:30;;;;;;;7.97;4.68;;;;;;;;;;5048425;28;20132;-64
2022/04/27 05:09:56;;;;;;;6.15;4.97;;;;;;;;;;5048771;28;20046;-64
2022/04/27 05:12:23;;;;;;;8.55;4.50;;;;;;;;;;5028583;28;20033;-63
2022/04/27 05:14:49;;;;;;;6.25;4.13;;;;;;;;;;5029679;28;20034;-62
2022/04/27 05:17:15;;;;;;;8.00;3.85;;;;;;;;;;5028524;28;20049;-62
2022/04/27 05:19:42;;;;;;;7.30;3.88;;;;;;;;;;5028692;28;20037;-64
2022/04/27 05:22:10;;;;;;;5.35;3.15;;;;;;;;;;5025976;28;20529;-64
2022/04/27 05:24:36;;;;;;;7.72;4.10;;;;;;;;;;5026118;28;20037;-64
2022/04/27 05:27:02;;;;;;;7.68;3.67;;;;;;;;;;5050112;28;20053;-64
2022/04/27 05:32:12;;;;;;;6.15;3.17;;;;;;;;;;5024488;28;20049;-64
2022/04/27 05:34:39;;;;;;;6.00;3.38;;;;;;;;;;5026729;28;20048;-63
2022/04/27 05:37:06;;;;;;;6.32;3.25;;;;;;;;;;5025547;28;20041;-65
2022/04/27 05:39:34;;;;;;;6.93;3.10;;;;;;;;;;5051087;28;20068;-64
2022/04/27 05:42:00;;;;;;;5.75;2.95;;;;;;;;;;5050367;28;20045;-64
2022/04/27 05:44:26;;;;;;;3.95;1.40;;;;;;;;;;5049913;28;20088;-64
2022/04/27 05:46:53;;;;;;;4.05;1.27;;;;;;;;;;5025374;28;20045;-65
2022/04/27 05:49:19;;;;;;;4.30;1.17;;;;;;;;;;5036230;28;20124;-64
2022/04/27 05:51:46;;;;;;;4.55;1.10;;;;;;;;;;5050605;28;20041;-63
2022/04/27 05:54:14;;;;;;;3.17;1.10;;;;;;;;;;5008988;28;20088;-64
2022/04/27 05:56:40;;;;;;;3.75;1.02;;;;;;;;;;5026760;28;20063;-65
2022/04/27 05:59:07;;;;;;;2.78;1.15;;;;;;;;;;5027300;28;20037;-64
2022/04/27 06:01:33;;;;;;;5.22;1.00;;;;;;;;;;5025262;28;20128;-64
2022/04/27 06:03:59;;;;;;;3.65;1.33;;;;;;;;;;5027099;28;20041;-62
2022/04/27 06:06:25;;;;;;;4.85;1.48;;;;;;;;;;5027019;28;20041;-64
2022/04/27 06:08:52;;;;;;;4.47;0.70;;;;;;;;;;5036061;28;20033;-64
2022/04/27 06:11:22;;;;;;;4.38;0.60;;;;;;;;;;5025432;28;20272;-64
2022/04/27 06:13:49;;;;;;;2.10;0.47;;;;;;;;;;5048717;28;20128;-64
2022/04/27 06:16:15;;;;;;;3.92;0.47;;;;;;;;;;5013050;28;20041;-64
2022/04/27 06:18:41;;;;;;;3.22;0.35;;;;;;;;;;5053377;28;20052;-63
2022/04/27 06:21:08;;;;;;;3.42;0.90;;;;;;;;;;5054601;28;20144;-63
2022/04/27 06:23:34;;;;;;;4.45;0.50;;;;;;;;;;5029701;28;20071;-63
2022/04/27 06:26:00;;;;;;;4.95;0.30;;;;;;;;;;5030724;28;20141;-64
2022/04/27 06:28:27;;;;;;;2.80;0.30;;;;;;;;;;5058332;28;20119;-63
2022/04/27 06:30:53;;;;;;;2.30;0.38;;;;;;;;;;5032493;28;20037;-62
2022/04/27 06:33:19;;;;;;;4.38;0.75;;;;;;;;;;5031600;28;20546;-65
2022/04/27 06:35:46;;;;;;;3.58;0.43;;;;;;;;;;5031788;28;20041;-62
2022/04/27 06:38:12;;;;;;;2.72;0.40;;;;;;;;;;5055649;28;20115;-63
2022/04/27 06:40:38;;;;;;;3.67;0.40;;;;;;;;;;5030161;28;20042;-64
2022/04/27 06:43:04;;;;;;;1.55;0.30;;;;;;;;;;5052186;28;20459;-64
2022/04/27 06:45:31;;;;;;;4.00;0.40;;;;;;;;;;5052912;28;20069;-66
2022/04/27 06:47:57;;;;;;;2.85;0.40;;;;;;;;;;5052403;28;20057;-65
2022/04/27 06:50:25;;;;;;;3.28;0.60;;;;;;;;;;5028923;28;20073;-65
2022/04/27 06:52:53;;;;;;;3.90;0.40;;;;;;;;;;5051708;28;20144;-65
2022/04/27 06:55:19;;;;;;;2.70;0.47;;;;;;;;;;5030079;28;20045;-64
2022/04/27 06:57:46;;;;;;;5.10;0.45;;;;;;;;;;5028306;28;20061;-65
2022/04/27 07:00:12;;;;;;;3.88;0.50;;;;;;;;;;5030299;28;20049;-64
2022/04/27 07:02:39;;;;;;;4.43;0.55;;;;;;;;;;5030004;28;20503;-65
2022/04/27 07:05:09;;;;;;;3.47;0.50;;;;;;;;;;5036671;28;20515;-64
2022/04/27 07:07:35;;;;;;;3.88;0.40;;;;;;;;;;5030439;28;20045;-63
2022/04/27 07:10:01;;;;;;;4.03;0.50;;;;;;;;;;5029861;28;20094;-64
2022/04/27 07:12:28;;;;;;;2.97;0.40;;;;;;;;;;5067170;28;20389;-64
2022/04/27 07:14:54;;;;;;;3.42;0.50;;;;;;;;;;5052835;28;20137;-65
2022/04/27 07:17:20;;;;;;;3.15;0.47;;;;;;;;;;5030320;28;20052;-66
2022/04/27 07:19:46;;;;;;;4.20;0.82;;;;;;;;;;5030403;28;20064;-65
2022/04/27 07:22:12;;;;;;;3.58;0.75;;;;;;;;;;5030674;28;20038;-64
2022/04/27 07:24:39;;;;;;;3.92;0.50;;;;;;;;;;5025961;28;20044;-64
2022/04/27 07:27:05;;;;;;;5.82;0.50;;;;;;;;;;5028269;28;20368;-64
2022/04/27 07:29:32;;;;;;;3.33;0.57;;;;;;;;;;5030510;28;20040;-65
2022/04/27 07:32:01;;;;;;;3.90;0.60;;;;;;;;;;5029475;28;20061;-64
2022/04/27 07:34:28;;;;;;;2.72;0.45;;;;;;;;;;5020128;28;20308;-64
2022/04/27 07:36:57;;;;;;;3.20;0.50;;;;;;;;;;5028451;28;20053;-64
2022/04/27 07:39:24;;;;;;;4.95;0.45;;;;;;;;;;5028479;28;20147;-65
2022/04/27 07:41:50;;;;;;;6.00;0.50;;;;;;;;;;5010972;28;20033;-65
2022/04/27 07:44:16;;;;;;;5.10;0.70;;;;;;;;;;5029107;28;20065;-64
2022/04/27 07:46:47;;;;;;;3.25;0.52;;;;;;;;;;5029120;28;20041;-64
2022/04/27 07:49:14;;;;;;;4.35;0.40;;;;;;;;;;5012096;28;20376;-64
2022/04/27 07:51:43;;;;;;;4.35;0.45;;;;;;;;;;5028071;28;20104;-64
2022/04/27 07:54:09;;;;;;;5.40;0.50;;;;;;;;;;5027564;28;20170;-64
2022/04/27 07:56:35;;;;;;;5.88;0.60;;;;;;;;;;5028785;28;20045;-63
2022/04/27 07:59:01;;;;;;;4.07;0.60;;;;;;;;;;5012694;28;20049;-63
2022/04/27 08:01:27;;;;;;;5.00;0.60;;;;;;;;;;5028241;28;20487;-61
2022/04/27 08:03:53;;;;;;;6.95;0.70;;;;;;;;;;5053160;28;20047;-65
2022/04/27 08:06:19;;;;;;;5.10;0.65;;;;;;;;;;5028643;28;20029;-65
2022/04/27 08:08:45;;;;;;;5.70;0.90;;;;;;;;;;5036354;28;20077;-65
2022/04/27 08:11:13;;;;;;;5.07;0.70;;;;;;;;;;5052152;28;20088;-64
2022/04/27 08:13:39;;;;;;;4.85;0.50;;;;;;;;;;5056475;28;20033;-64
2022/04/27 08:16:10;;;;;;;4.20;0.63;;;;;;;;;;5028543;28;20437;-64
2022/04/27 08:18:37;;;;;;;6.22;0.57;;;;;;;;;;5019717;28;20033;-65
2022/04/27 08:21:15;;;;;;;6.65;0.75;;;;;;;;;;4995031;28;20241;-64
2022/04/27 08:23:43;;;;;;;4.78;0.57;;;;;;;;;;5026173;28;20124;-63
2022/04/27 08:26:10;;;;;;;5.70;0.55;;;;;;;;;;5027448;28;20076;-65
2022/04/27 08:28:40;;;;;;;4.72;0.55;;;;;;;;;;5053066;28;20033;-65
2022/04/27 08:31:07;;;;;;;6.30;0.60;;;;;;;;;;5029001;28;20557;-64
2022/04/27 08:33:33;;;;;;;5.93;0.65;;;;;;;;;;5028099;28;20041;-63
2022/04/27 08:35:59;;;;;;;4.32;0.50;;;;;;;;;;5049643;28;20049;-64
2022/04/27 08:38:26;;;;;;;4.40;0.50;;;;;;;;;;5053917;28;20499;-64
2022/04/27 08:40:52;;;;;;;4.70;0.57;;;;;;;;;;5026782;28;20128;-64
2022/04/27 08:43:18;;;;;;;6.90;0.80;;;;;;;;;;5009968;28;20052;-63
2022/04/27 08:45:45;;;;;;;5.38;0.50;;;;;;;;;;5027807;28;20069;-64
2022/04/27 08:48:12;;;;;;;6.20;0.75;;;;;;;;;;5013305;28;20045;-65
2022/04/27 08:50:39;;;;;;;5.90;0.90;;;;;;;;;;5027307;28;20623;-64
2022/04/27 08:53:05;;;;;;;5.50;0.95;;;;;;;;;;5025868;28;20495;-65
2022/04/27 08:55:31;;;;;;;5.57;1.02;;;;;;;;;;5026055;28;21264;-65
2022/04/27 08:58:08;;;;;;;4.55;0.90;;;;;;;;;;5009711;28;20044;-65
2022/04/27 09:00:34;;;;;;;5.45;1.17;;;;;;;;;;5026114;28;20120;-65
2022/04/27 09:03:19;;;;;;;5.03;0.88;;;;;;;;;;5027285;28;20041;-64
2022/04/27 09:05:49;;;;;;;8.05;0.80;;;;;;;;;;5035398;28;20040;-63
2022/04/27 09:08:15;;;;;;;6.80;0.85;;;;;;;;;;5010501;28;20562;-64
2022/04/27 09:10:41;;;;;;;5.40;0.82;;;;;;;;;;5033320;28;20041;-64
2022/04/27 09:13:07;;;;;;;4.03;0.80;;;;;;;;;;5026692;28;20049;-65
2022/04/27 09:15:33;;;;;;;4.78;1.17;;;;;;;;;;5018733;28;20081;-64
2022/04/27 09:21:02;;;;;;;7.57;0.80;;;;;;;;;;5026397;28;20056;-66
2022/04/27 09:23:36;;;;;;;13.25;1.23;;;;;;;;;;5024952;28;20101;-65
2022/04/27 09:26:14;;;;;;;5.72;0.98;;;;;;;;;;5051038;28;20485;-64
2022/04/27 09:28:40;;;;;;;4.53;0.65;;;;;;;;;;5026995;28;20038;-65
2022/04/27 09:31:06;;;;;;;6.28;1.20;;;;;;;;;;5034927;28;20040;-66
2022/04/27 09:33:36;;;;;;;4.13;0.75;;;;;;;;;;5026271;28;20077;-66
2022/04/27 09:36:03;;;;;;;5.47;1.00;;;;;;;;;;5025616;28;20112;-65
2022/04/27 09:38:40;;;;;;;7.15;1.65;;;;;;;;;;5026066;28;20037;-65
2022/04/27 09:41:06;;;;;;;6.85;1.73;;;;;;;;;;5046228;28;20045;-66
2022/04/27 09:43:42;;;;;;;7.72;1.17;;;;;;;;;;5029473;28;20088;-65
2022/04/27 09:46:25;;;;;;;6.25;1.00;;;;;;;;;;5046282;28;20377;-65
2022/04/27 09:49:14;;;;;;;11.80;1.00;;;;;;;;;;5025504;28;20117;-65
2022/04/27 09:51:51;;;;;;;6.40;1.20;;;;;;;;;;5009492;28;20072;-67
2022/04/27 09:54:18;;;;;;;6.68;1.40;;;;;;;;;;5051738;28;20034;-67
2022/04/27 09:56:48;;;;;;;8.15;1.13;;;;;;;;;;4993220;28;20127;-67
2022/04/27 09:59:16;;;;;;;7.30;1.10;;;;;;;;;;5025352;28;20063;-66
2022/04/27 10:01:43;;;;;;;9.38;1.40;;;;;;;;;;5025559;28;20041;-65
2022/04/27 10:04:11;;;;;;;10.85;1.55;;;;;;;;;;5027150;28;20443;-66
2022/04/27 10:06:37;;;;;;;10.25;1.38;;;;;;;;;;5040311;28;20041;-66
2022/04/27 10:09:04;;;;;;;11.05;2.63;;;;;;;;;;5024889;28;20041;-66
2022/04/27 10:11:32;;;;;;;8.98;1.70;;;;;;;;;;5030562;28;20041;-65
2022/04/27 10:13:58;;;;;;;9.18;1.30;;;;;;;;;;5027668;28;20050;-66
2022/04/27 10:16:25;;;;;;;9.15;1.42;;;;;;;;;;5027510;28;20484;-66
2022/04/27 10:18:54;;;;;;;13.63;1.50;;;;;;;;;;5060688;28;20052;-64
2022/04/27 10:21:56;;;;;;;9.32;1.80;;;;;;;;;;5060556;28;20043;-66
2022/04/27 10:24:34;;;;;;;11.13;1.65;;;;;;;;;;5027769;28;20569;-64
2022/04/27 10:27:19;;;;;;;13.90;1.92;;;;;;;;;;5047754;28;20045;-64
2022/04/27 10:29:58;;;;;;;10.48;1.75;;;;;;;;;;5021904;28;20132;-64
2022/04/27 10:32:36;;;;;;;11.20;1.63;;;;;;;;;;5025799;28;20052;-64
2022/04/27 10:37:52;;;;;;;9.88;1.58;;;;;;;;;;5052602;28;20038;-63
2022/04/27 10:40:29;;;;;;;12.05;1.60;;;;;;;;;;5024508;28;20062;-64
2022/04/27 10:43:21;;;;;;;10.82;1.40;;;;;;;;;;5025617;28;20080;-64
2022/04/27 10:45:48;;;;;;;12.38;1.38;;;;;;;;;;5020379;28;20049;-64
2022/04/27 10:48:24;;;;;;;11.52;1.70;;;;;;;;;;5026727;28;20245;-65
2022/04/27 10:51:08;;;;;;;9.30;1.20;;;;;;;;;;5023492;28;20048;-64
2022/04/27 10:53:41;;;;;;;10.95;1.63;;;;;;;;;;5040676;28;20049;-64
2022/04/27 10:56:26;;;;;;;13.98;1.33;;;;;;;;;;5054215;28;20045;-65
2022/04/27 10:58:53;;;;;;;7.88;1.73;;;;;;;;;;5036886;28;20034;-66
2022/04/27 11:01:20;;;;;;;8.60;1.10;;;;;;;;;;5028628;28;20044;-64
2022/04/27 11:04:06;;;;;;;14.75;1.48;;;;;;;;;;5029663;28;20048;-64
2022/04/27 11:06:49;;;;;;;11.98;1.60;;;;;;;;;;5029530;28;20365;-64
2022/04/27 11:09:25;;;;;;;7.07;1.00;;;;;;;;;;5029668;28;20053;-64
2022/04/27 11:11:56;;;;;;;10.05;1.13;;;;;;;;;;5013076;28;20048;-64
2022/04/27 11:14:28;;;;;;;12.05;1.20;;;;;;;;;;5015817;28;20038;-63
2022/04/27 11:16:54;;;;;;;9.52;1.60;;;;;;;;;;5029888;28;20045;-65
2022/04/27 11:19:20;;;;;;;11.10;1.20;;;;;;;;;;5057201;28;20488;-64
2022/04/27 11:21:48;;;;;;;8.88;1.60;;;;;;;;;;5011787;28;20041;-64
2022/04/27 11:24:15;;;;;;;15.00;1.80;;;;;;;;;;4996210;28;20484;-64
2022/04/27 11:26:42;;;;;;;12.48;1.33;;;;;;;;;;5012599;28;20060;-64
2022/04/27 11:29:10;;;;;;;10.30;1.02;;;;;;;;;;5035918;28;20037;-64
2022/04/27 11:31:36;;;;;;;8.88;1.48;;;;;;;;;;5031919;28;20183;-63
2022/04/27 11:34:20;;;;;;;11.07;1.67;;;;;;;;;;5040516;28;20545;-62
2022/04/27 11:36:46;;;;;;;10.13;1.67;;;;;;;;;;5053481;28;20188;-63
2022/04/27 11:39:19;;;;;;;8.80;1.55;;;;;;;;;;5041963;28;20041;-63
2022/04/27 11:41:45;;;;;;;12.35;1.55;;;;;;;;;;5052835;28;20181;-63
2022/04/27 11:44:11;;;;;;;11.55;1.42;;;;;;;;;;5031954;28;20392;-63
2022/04/27 11:46:38;;;;;;;7.70;1.10;;;;;;;;;;5030676;28;20041;-64
2022/04/27 11:49:11;;;;;;;11.23;1.50;;;;;;;;;;5053976;28;20160;-64
2022/04/27 11:51:38;;;;;;;9.20;1.20;;;;;;;;;;5051848;28;20305;-64
2022/04/27 11:54:05;;;;;;;11.10;1.80;;;;;;;;;;5028833;28;20036;-64
2022/04/27 11:56:38;;;;;;;10.23;1.35;;;;;;;;;;5061991;28;20081;-62
2022/04/27 11:59:07;;;;;;;10.70;1.15;;;;;;;;;;5029019;28;20311;-63
2022/04/27 12:01:34;;;;;;;10.70;1.30;;;;;;;;;;5029600;28;20073;-63
2022/04/27 12:04:01;;;;;;;9.60;1.40;;;;;;;;;;5030950;28;20078;-65
2022/04/27 12:06:28;;;;;;;11.05;1.42;;;;;;;;;;5061293;28;20119;-63
2022/04/27 12:09:00;;;;;;;9.60;1.13;;;;;;;;;;5013017;28;20139;-63
2022/04/27 12:11:26;;;;;;;11.25;1.10;;;;;;;;;;5013212;28;20403;-63
2022/04/27 12:13:55;;;;;;;9.52;1.48;;;;;;;;;;5031881;28;20033;-63
2022/04/27 12:16:21;;;;;;;9.50;1.27;;;;;;;;;;5034758;28;20088;-64
2022/04/27 12:18:51;;;;;;;11.45;1.45;;;;;;;;;;5029828;28;20040;-64
2022/04/27 12:21:26;;;;;;;10.48;1.15;;;;;;;;;;5012786;28;20088;-64
2022/04/27 12:23:56;;;;;;;11.10;1.55;;;;;;;;;;5028338;28;20033;-64
2022/04/27 12:26:22;;;;;;;10.05;1.35;;;;;;;;;;5012286;28;20037;-64
2022/04/27 12:28:49;;;;;;;11.95;1.25;;;;;;;;;;5050472;28;20547;-64
2022/04/27 12:31:16;;;;;;;10.70;1.35;;;;;;;;;;5030275;28;20229;-63
2022/04/27 12:33:44;;;;;;;11.25;1.35;;;;;;;;;;5030871;28;20048;-64
2022/04/27 12:39:02;;;;;;;9.40;1.25;;;;;;;;;;5031092;28;20083;-64
2022/04/27 12:41:47;;;;;;;9.57;1.27;;;;;;;;;;5012965;28;20049;-63
2022/04/27 12:44:17;;;;;;;8.88;1.02;;;;;;;;;;5012860;28;20095;-63
2022/04/27 12:47:00;;;;;;;8.88;1.05;;;;;;;;;;5027670;28;20103;-65
2022/04/27 12:49:26;;;;;;;8.88;1.10;;;;;;;;;;5052491;28;20045;-66
2022/04/27 12:51:53;;;;;;;7.20;0.82;;;;;;;;;;5027343;28;20052;-65
2022/04/27 12:54:19;;;;;;;10.32;1.02;;;;;;;;;;5026280;28;20112;-65
2022/04/27 12:56:45;;;;;;;9.48;1.00;;;;;;;;;;5024936;28;20496;-66
2022/04/27 12:59:12;;;;;;;8.07;1.05;;;;;;;;;;5011207;28;20510;-66
2022/04/27 13:01:39;;;;;;;7.30;0.77;;;;;;;;;;5026165;28;20041;-65
2022/04/27 13:04:06;;;;;;;6.70;0.70;;;;;;;;;;5027987;28;20161;-65
2022/04/27 13:06:32;;;;;;;10.77;1.08;;;;;;;;;;5027787;28;20049;-65
2022/04/27 13:11:56;;;;;;;6.82;1.05;;;;;;;;;;5029428;28;20483;-65
2022/04/27 13:14:26;;;;;;;7.57;0.90;;;;;;;;;;5011542;28;20487;-66
2022/04/27 13:16:57;;;;;;;9.90;1.33;;;;;;;;;;5028129;28;20141;-65
2022/04/27 13:19:23;;;;;;;9.38;1.13;;;;;;;;;;5028281;28;20033;-65
2022/04/27 13:21:50;;;;;;;10.70;1.65;;;;;;;;;;5027760;28;20045;-66
2022/04/27 13:24:17;;;;;;;11.77;1.73;;;;;;;;;;5028467;28;20092;-65
2022/04/27 13:26:43;;;;;;;10.48;1.20;;;;;;;;;;5011416;28;20081;-65
2022/04/27 13:29:09;;;;;;;8.00;1.33;;;;;;;;;;5029398;28;20514;-65
2022/04/27 13:31:36;;;;;;;10.02;1.45;;;;;;;;;;5029025;28;20057;-65
2022/04/27 13:34:02;;;;;;;10.75;1.25;;;;;;;;;;5029435;28;20117;-65
2022/04/27 13:36:28;;;;;;;9.68;1.55;;;;;;;;;;5027888;28;20033;-66
2022/04/27 13:38:54;;;;;;;10.85;1.33;;;;;;;;;;5028127;28;20561;-66
2022/04/27 13:41:20;;;;;;;9.10;0.90;;;;;;;;;;5027779;28;20045;-65
2022/04/27 13:43:47;;;;;;;6.10;1.00;;;;;;;;;;5027674;28;20041;-65
2022/04/27 13:46:13;;;;;;;9.18;1.42;;;;;;;;;;5027568;28;20057;-65
2022/04/27 13:48:40;;;;;;;8.95;1.50;;;;;;;;;;5028018;28;20044;-65
2022/04/27 13:51:07;;;;;;;10.30;1.52;;;;;;;;;;5027848;28;20064;-65
2022/04/27 13:53:33;;;;;;;9.15;1.17;;;;;;;;;;5027500;28;20038;-66
2022/04/27 13:56:00;;;;;;;11.05;1.27;;;;;;;;;;5011236;28;20116;-65
2022/04/27 13:58:28;;;;;;;9.68;1.70;;;;;;;;;;4994857;28;20042;-65
2022/04/27 14:00:54;;;;;;;11.15;1.30;;;;;;;;;;5011502;28;20052;-65
2022/04/27 14:03:20;;;;;;;10.32;1.00;;;;;;;;;;5027881;28;20056;-66
2022/04/27 14:05:47;;;;;;;15.07;1.10;;;;;;;;;;5027346;28;20052;-65
2022/04/27 14:08:14;;;;;;;7.05;0.80;;;;;;;;;;5027468;28;20061;-65
2022/04/27 14:10:40;;;;;;;8.55;1.10;;;;;;;;;;5027403;28;20045;-65
2022/04/27 14:13:16;;;;;;;6.65;0.93;;;;;;;;;;5027200;28;20111;-65
2022/04/27 14:18:09;;;;;;;14.50;1.63;;;;;;;;;;5027723;28;20049;-65
2022/04/27 14:18:29;;;;;;;12.05;1.30;;;;;;;;;;5028878;28;20561;-64
2022/04/27 14:20:55;;;;;;;7.78;1.10;;;;;;;;;;5011055;28;20048;-65
2022/04/27 14:23:23;;;;;;;7.57;0.95;;;;;;;;;;5012669;28;20053;-64
2022/04/27 14:25:49;;;;;;;9.80;0.90;;;;;;;;;;5030343;28;20033;-63
2022/04/27 14:28:15;;;;;;;10.23;1.30;;;;;;;;;;5029072;28;20049;-63
2022/04/27 14:30:42;;;;;;;8.50;1.27;;;;;;;;;;5011350;28;20109;-65
2022/04/27 14:33:08;;;;;;;12.00;1.33;;;;;;;;;;5027532;28;20108;-65
2022/04/27 14:35:36;;;;;;;9.07;0.90;;;;;;;;;;5029135;28;20045;-65
2022/04/27 14:38:03;;;;;;;11.05;1.25;;;;;;;;;;5014763;28;20452;-65
2022/04/27 14:40:29;;;;;;;11.98;1.10;;;;;;;;;;5032597;28;20046;-64
2022/04/27 14:42:56;;;;;;;6.82;1.10;;;;;;;;;;4998664;28;20056;-66
2022/04/27 14:45:22;;;;;;;11.05;1.33;;;;;;;;;;5032406;28;20058;-65
2022/04/27 14:47:49;;;;;;;7.30;0.95;;;;;;;;;;5031984;28;20569;-65
2022/04/27 14:50:15;;;;;;;6.60;0.80;;;;;;;;;;5030857;28;20118;-65
2022/04/27 14:52:41;;;;;;;7.22;0.80;;;;;;;;;;5030745;28;20128;-64
2022/04/27 14:55:08;;;;;;;9.80;1.23;;;;;;;;;;5030737;28;20048;-65
2022/04/27 14:57:35;;;;;;;8.77;1.52;;;;;;;;;;5030523;28;20503;-65
2022/04/27 15:00:01;;;;;;;6.43;0.80;;;;;;;;;;5030843;28;20057;-65
2022/04/27 15:02:27;;;;;;;7.05;1.17;;;;;;;;;;5032480;28;20443;-65
2022/04/27 15:04:54;;;;;;;9.52;1.10;;;;;;;;;;5016177;28;20045;-64
2022/04/27 15:07:20;;;;;;;9.25;1.33;;;;;;;;;;5014808;28;20045;-64